sensor_id;sensor_type;location;lat;lon;timestamp;P1;durP1;ratioP1;P2;durP2;ratioP2
27899;SDS011;15243;50.726;7.080;2023-01-05T00:01:04;23.58;;;4.32;;
27899;SDS011;15243;50.726;7.080;2023-01-05T00:03:33;19.02;;;4.55;;
27899;SDS011;15243;50.726;7.080;2023-01-05T00:06:02;21.77;;;3.97;;
27899;SDS011;15243;50.726;7.080;2023-01-05T00:08:39;21.15;;;3.67;;
27899;SDS011;15243;50.726;7.080;2023-01-05T00:11:14;20.65;;;3.60;;
27899;SDS011;15243;50.726;7.080;2023-01-05T00:14:04;27.17;;;4.60;;
27899;SDS011;15243;50.726;7.080;2023-01-05T00:16:50;19.83;;;4.05;;
27899;SDS011;15243;50.726;7.080;2023-01-05T00:19:36;19.10;;;3.67;;
27899;SDS011;15243;50.726;7.080;2023-01-05T00:22:23;26.05;;;3.50;;
27899;SDS011;15243;50.726;7.080;2023-01-05T00:25:01;17.23;;;2.92;;
27899;SDS011;15243;50.726;7.080;2023-01-05T00:27:37;27.35;;;4.07;;
27899;SDS011;15243;50.726;7.080;2023-01-05T00:30:06;17.08;;;3.78;;
27899;SDS011;15243;50.726;7.080;2023-01-05T00:32:34;24.40;;;3.53;;
27899;SDS011;15243;50.726;7.080;2023-01-05T00:35:00;21.20;;;3.65;;
27899;SDS011;15243;50.726;7.080;2023-01-05T00:37:29;21.58;;;3.72;;
27899;SDS011;15243;50.726;7.080;2023-01-05T00:39:58;22.77;;;4.07;;
27899;SDS011;15243;50.726;7.080;2023-01-05T00:42:24;20.67;;;3.78;;
27899;SDS011;15243;50.726;7.080;2023-01-05T00:44:52;22.52;;;3.78;;
27899;SDS011;15243;50.726;7.080;2023-01-05T00:47:19;18.95;;;3.72;;
27899;SDS011;15243;50.726;7.080;2023-01-05T00:49:46;23.50;;;3.78;;
27899;SDS011;15243;50.726;7.080;2023-01-05T00:52:13;23.38;;;4.00;;
27899;SDS011;15243;50.726;7.080;2023-01-05T00:54:39;22.45;;;4.03;;
27899;SDS011;15243;50.726;7.080;2023-01-05T00:57:06;20.45;;;4.13;;
27899;SDS011;15243;50.726;7.080;2023-01-05T00:59:35;23.52;;;3.50;;
27899;SDS011;15243;50.726;7.080;2023-01-05T01:02:02;20.38;;;3.25;;
27899;SDS011;15243;50.726;7.080;2023-01-05T01:04:30;21.48;;;4.50;;
27899;SDS011;15243;50.726;7.080;2023-01-05T01:06:57;28.55;;;4.43;;
27899;SDS011;15243;50.726;7.080;2023-01-05T01:09:24;23.00;;;4.32;;
27899;SDS011;15243;50.726;7.080;2023-01-05T01:11:51;20.42;;;3.10;;
27899;SDS011;15243;50.726;7.080;2023-01-05T01:14:18;20.65;;;3.97;;
27899;SDS011;15243;50.726;7.080;2023-01-05T01:16:45;23.23;;;4.82;;
27899;SDS011;15243;50.726;7.080;2023-01-05T01:19:19;22.63;;;3.60;;
27899;SDS011;15243;50.726;7.080;2023-01-05T01:21:48;22.30;;;3.85;;
27899;SDS011;15243;50.726;7.080;2023-01-05T01:24:16;22.23;;;4.00;;
27899;SDS011;15243;50.726;7.080;2023-01-05T01:26:51;29.52;;;4.47;;
27899;SDS011;15243;50.726;7.080;2023-01-05T01:29:18;24.58;;;3.72;;
27899;SDS011;15243;50.726;7.080;2023-01-05T01:31:46;22.50;;;3.83;;
27899;SDS011;15243;50.726;7.080;2023-01-05T01:34:15;19.08;;;3.80;;
27899;SDS011;15243;50.726;7.080;2023-01-05T01:36:42;22.88;;;3.83;;
27899;SDS011;15243;50.726;7.080;2023-01-05T01:39:09;23.27;;;3.30;;
27899;SDS011;15243;50.726;7.080;2023-01-05T01:41:36;23.70;;;4.25;;
27899;SDS011;15243;50.726;7.080;2023-01-05T01:47:09;25.38;;;3.67;;
27899;SDS011;15243;50.726;7.080;2023-01-05T01:49:41;23.17;;;3.67;;
27899;SDS011;15243;50.726;7.080;2023-01-05T01:52:09;19.08;;;3.97;;
27899;SDS011;15243;50.726;7.080;2023-01-05T01:54:36;29.63;;;3.85;;
27899;SDS011;15243;50.726;7.080;2023-01-05T01:57:03;19.73;;;3.38;;
27899;SDS011;15243;50.726;7.080;2023-01-05T01:59:30;31.65;;;4.03;;
27899;SDS011;15243;50.726;7.080;2023-01-05T02:01:58;25.55;;;4.28;;
27899;SDS011;15243;50.726;7.080;2023-01-05T02:04:28;23.08;;;4.32;;
27899;SDS011;15243;50.726;7.080;2023-01-05T02:06:58;21.50;;;4.05;;
27899;SDS011;15243;50.726;7.080;2023-01-05T02:09:26;24.83;;;3.63;;
27899;SDS011;15243;50.726;7.080;2023-01-05T02:11:57;17.95;;;4.20;;
27899;SDS011;15243;50.726;7.080;2023-01-05T02:14:37;23.65;;;4.15;;
27899;SDS011;15243;50.726;7.080;2023-01-05T02:20:05;26.48;;;4.05;;
27899;SDS011;15243;50.726;7.080;2023-01-05T02:22:57;25.58;;;4.85;;
27899;SDS011;15243;50.726;7.080;2023-01-05T02:31:12;25.75;;;4.55;;
27899;SDS011;15243;50.726;7.080;2023-01-05T02:34:02;32.05;;;4.28;;
27899;SDS011;15243;50.726;7.080;2023-01-05T02:36:38;27.00;;;4.85;;
27899;SDS011;15243;50.726;7.080;2023-01-05T02:39:31;19.77;;;3.85;;
27899;SDS011;15243;50.726;7.080;2023-01-05T02:42:03;23.00;;;3.88;;
27899;SDS011;15243;50.726;7.080;2023-01-05T02:44:34;21.05;;;4.47;;
27899;SDS011;15243;50.726;7.080;2023-01-05T02:47:01;20.48;;;3.88;;
27899;SDS011;15243;50.726;7.080;2023-01-05T02:49:37;20.88;;;3.22;;
27899;SDS011;15243;50.726;7.080;2023-01-05T02:52:06;20.77;;;3.95;;
27899;SDS011;15243;50.726;7.080;2023-01-05T02:54:39;23.17;;;3.53;;
27899;SDS011;15243;50.726;7.080;2023-01-05T02:57:17;20.70;;;3.60;;
27899;SDS011;15243;50.726;7.080;2023-01-05T03:00:08;29.58;;;4.00;;
27899;SDS011;15243;50.726;7.080;2023-01-05T03:02:36;23.58;;;4.22;;
27899;SDS011;15243;50.726;7.080;2023-01-05T03:05:08;27.48;;;4.13;;
27899;SDS011;15243;50.726;7.080;2023-01-05T03:07:40;23.33;;;3.95;;
27899;SDS011;15243;50.726;7.080;2023-01-05T03:10:09;23.23;;;3.80;;
27899;SDS011;15243;50.726;7.080;2023-01-05T03:12:58;27.02;;;3.95;;
27899;SDS011;15243;50.726;7.080;2023-01-05T03:15:49;24.05;;;4.00;;
27899;SDS011;15243;50.726;7.080;2023-01-05T03:18:18;20.65;;;3.65;;
27899;SDS011;15243;50.726;7.080;2023-01-05T03:20:47;33.05;;;3.80;;
27899;SDS011;15243;50.726;7.080;2023-01-05T03:23:16;26.60;;;4.82;;
27899;SDS011;15243;50.726;7.080;2023-01-05T03:26:05;29.42;;;4.65;;
27899;SDS011;15243;50.726;7.080;2023-01-05T03:28:53;22.08;;;3.33;;
27899;SDS011;15243;50.726;7.080;2023-01-05T03:31:50;24.50;;;4.05;;
27899;SDS011;15243;50.726;7.080;2023-01-05T03:37:33;30.98;;;3.95;;
27899;SDS011;15243;50.726;7.080;2023-01-05T03:40:05;30.33;;;4.00;;
27899;SDS011;15243;50.726;7.080;2023-01-05T03:42:40;27.13;;;4.10;;
27899;SDS011;15243;50.726;7.080;2023-01-05T03:45:09;26.73;;;4.57;;
27899;SDS011;15243;50.726;7.080;2023-01-05T03:47:37;27.23;;;4.38;;
27899;SDS011;15243;50.726;7.080;2023-01-05T03:50:04;25.77;;;4.53;;
27899;SDS011;15243;50.726;7.080;2023-01-05T03:52:31;20.00;;;4.07;;
27899;SDS011;15243;50.726;7.080;2023-01-05T03:54:58;24.35;;;3.50;;
27899;SDS011;15243;50.726;7.080;2023-01-05T03:57:24;22.00;;;4.05;;
27899;SDS011;15243;50.726;7.080;2023-01-05T03:59:51;30.80;;;4.10;;
27899;SDS011;15243;50.726;7.080;2023-01-05T04:02:18;20.20;;;3.35;;
27899;SDS011;15243;50.726;7.080;2023-01-05T04:04:45;27.33;;;3.80;;
27899;SDS011;15243;50.726;7.080;2023-01-05T04:07:12;28.08;;;5.30;;
27899;SDS011;15243;50.726;7.080;2023-01-05T04:09:39;32.50;;;5.05;;
27899;SDS011;15243;50.726;7.080;2023-01-05T04:12:06;22.75;;;3.47;;
27899;SDS011;15243;50.726;7.080;2023-01-05T04:14:32;18.70;;;3.35;;
27899;SDS011;15243;50.726;7.080;2023-01-05T04:16:59;24.95;;;4.18;;
27899;SDS011;15243;50.726;7.080;2023-01-05T04:19:26;21.98;;;4.00;;
27899;SDS011;15243;50.726;7.080;2023-01-05T04:21:53;24.73;;;3.97;;
27899;SDS011;15243;50.726;7.080;2023-01-05T04:24:19;26.58;;;4.13;;
27899;SDS011;15243;50.726;7.080;2023-01-05T04:26:46;26.95;;;3.97;;
27899;SDS011;15243;50.726;7.080;2023-01-05T04:29:13;25.98;;;3.75;;
27899;SDS011;15243;50.726;7.080;2023-01-05T04:31:40;37.92;;;4.97;;
27899;SDS011;15243;50.726;7.080;2023-01-05T04:34:07;25.33;;;3.35;;
27899;SDS011;15243;50.726;7.080;2023-01-05T04:36:33;23.10;;;4.25;;
27899;SDS011;15243;50.726;7.080;2023-01-05T04:39:00;28.65;;;4.15;;
27899;SDS011;15243;50.726;7.080;2023-01-05T04:41:27;24.98;;;3.50;;
27899;SDS011;15243;50.726;7.080;2023-01-05T04:43:54;31.45;;;4.10;;
27899;SDS011;15243;50.726;7.080;2023-01-05T04:46:20;24.52;;;5.13;;
27899;SDS011;15243;50.726;7.080;2023-01-05T04:48:47;27.25;;;4.10;;
27899;SDS011;15243;50.726;7.080;2023-01-05T04:51:14;28.83;;;4.07;;
27899;SDS011;15243;50.726;7.080;2023-01-05T04:53:41;24.83;;;4.68;;
27899;SDS011;15243;50.726;7.080;2023-01-05T04:56:08;33.83;;;4.35;;
27899;SDS011;15243;50.726;7.080;2023-01-05T04:58:35;24.08;;;3.50;;
27899;SDS011;15243;50.726;7.080;2023-01-05T05:01:02;27.17;;;3.97;;
27899;SDS011;15243;50.726;7.080;2023-01-05T05:03:29;22.27;;;4.45;;
27899;SDS011;15243;50.726;7.080;2023-01-05T05:05:58;26.23;;;5.13;;
27899;SDS011;15243;50.726;7.080;2023-01-05T05:08:25;26.35;;;3.45;;
27899;SDS011;15243;50.726;7.080;2023-01-05T05:10:52;27.45;;;4.68;;
27899;SDS011;15243;50.726;7.080;2023-01-05T05:13:19;28.42;;;4.45;;
27899;SDS011;15243;50.726;7.080;2023-01-05T05:15:46;25.85;;;4.30;;
27899;SDS011;15243;50.726;7.080;2023-01-05T05:18:13;22.27;;;3.65;;
27899;SDS011;15243;50.726;7.080;2023-01-05T05:20:40;31.02;;;4.40;;
27899;SDS011;15243;50.726;7.080;2023-01-05T05:23:09;35.78;;;4.57;;
27899;SDS011;15243;50.726;7.080;2023-01-05T05:25:36;29.70;;;4.43;;
27899;SDS011;15243;50.726;7.080;2023-01-05T05:28:02;27.85;;;4.68;;
27899;SDS011;15243;50.726;7.080;2023-01-05T05:30:29;28.35;;;4.10;;
27899;SDS011;15243;50.726;7.080;2023-01-05T05:32:56;23.95;;;4.13;;
27899;SDS011;15243;50.726;7.080;2023-01-05T05:35:23;23.60;;;4.40;;
27899;SDS011;15243;50.726;7.080;2023-01-05T05:37:50;25.67;;;4.05;;
27899;SDS011;15243;50.726;7.080;2023-01-05T05:40:22;28.95;;;4.28;;
27899;SDS011;15243;50.726;7.080;2023-01-05T05:42:49;32.55;;;4.65;;
27899;SDS011;15243;50.726;7.080;2023-01-05T05:45:16;39.17;;;5.38;;
27899;SDS011;15243;50.726;7.080;2023-01-05T05:47:42;28.02;;;4.82;;
27899;SDS011;15243;50.726;7.080;2023-01-05T05:50:09;30.35;;;5.85;;
27899;SDS011;15243;50.726;7.080;2023-01-05T05:52:37;26.23;;;5.25;;
27899;SDS011;15243;50.726;7.080;2023-01-05T05:55:03;30.90;;;4.93;;
27899;SDS011;15243;50.726;7.080;2023-01-05T05:57:31;29.73;;;4.22;;
27899;SDS011;15243;50.726;7.080;2023-01-05T05:59:57;30.88;;;4.75;;
27899;SDS011;15243;50.726;7.080;2023-01-05T06:02:24;28.83;;;4.43;;
27899;SDS011;15243;50.726;7.080;2023-01-05T06:04:51;34.40;;;4.53;;
27899;SDS011;15243;50.726;7.080;2023-01-05T06:07:18;31.75;;;4.57;;
27899;SDS011;15243;50.726;7.080;2023-01-05T06:09:45;36.15;;;6.13;;
27899;SDS011;15243;50.726;7.080;2023-01-05T06:12:11;30.35;;;5.43;;
27899;SDS011;15243;50.726;7.080;2023-01-05T06:14:38;27.88;;;4.72;;
27899;SDS011;15243;50.726;7.080;2023-01-05T06:17:05;23.98;;;4.00;;
27899;SDS011;15243;50.726;7.080;2023-01-05T06:19:32;34.30;;;5.57;;
27899;SDS011;15243;50.726;7.080;2023-01-05T06:21:59;29.52;;;4.57;;
27899;SDS011;15243;50.726;7.080;2023-01-05T06:24:26;31.63;;;4.93;;
27899;SDS011;15243;50.726;7.080;2023-01-05T06:26:52;25.80;;;4.13;;
27899;SDS011;15243;50.726;7.080;2023-01-05T06:29:19;33.47;;;4.30;;
27899;SDS011;15243;50.726;7.080;2023-01-05T06:31:46;34.35;;;5.13;;
27899;SDS011;15243;50.726;7.080;2023-01-05T06:34:13;30.90;;;4.95;;
27899;SDS011;15243;50.726;7.080;2023-01-05T06:36:40;29.23;;;4.07;;
27899;SDS011;15243;50.726;7.080;2023-01-05T06:39:06;25.13;;;3.97;;
27899;SDS011;15243;50.726;7.080;2023-01-05T06:41:33;32.00;;;3.85;;
27899;SDS011;15243;50.726;7.080;2023-01-05T06:44:00;30.52;;;5.18;;
27899;SDS011;15243;50.726;7.080;2023-01-05T06:46:27;27.85;;;4.00;;
27899;SDS011;15243;50.726;7.080;2023-01-05T06:48:54;31.58;;;4.82;;
27899;SDS011;15243;50.726;7.080;2023-01-05T06:51:22;33.75;;;4.53;;
27899;SDS011;15243;50.726;7.080;2023-01-05T06:53:48;26.48;;;4.15;;
27899;SDS011;15243;50.726;7.080;2023-01-05T06:56:15;34.15;;;4.65;;
27899;SDS011;15243;50.726;7.080;2023-01-05T06:58:43;32.42;;;5.22;;
27899;SDS011;15243;50.726;7.080;2023-01-05T07:01:10;33.10;;;4.50;;
27899;SDS011;15243;50.726;7.080;2023-01-05T07:03:37;28.98;;;4.63;;
27899;SDS011;15243;50.726;7.080;2023-01-05T07:06:04;22.48;;;4.00;;
27899;SDS011;15243;50.726;7.080;2023-01-05T07:08:38;31.25;;;4.47;;
27899;SDS011;15243;50.726;7.080;2023-01-05T07:11:04;35.65;;;5.70;;
27899;SDS011;15243;50.726;7.080;2023-01-05T07:13:31;30.52;;;5.70;;
27899;SDS011;15243;50.726;7.080;2023-01-05T07:15:58;30.23;;;4.43;;
27899;SDS011;15243;50.726;7.080;2023-01-05T07:18:25;38.60;;;5.40;;
27899;SDS011;15243;50.726;7.080;2023-01-05T07:20:52;31.42;;;4.07;;
27899;SDS011;15243;50.726;7.080;2023-01-05T07:23:19;36.10;;;4.88;;
27899;SDS011;15243;50.726;7.080;2023-01-05T07:25:45;29.77;;;5.03;;
27899;SDS011;15243;50.726;7.080;2023-01-05T07:28:12;29.90;;;5.07;;
27899;SDS011;15243;50.726;7.080;2023-01-05T07:30:39;35.03;;;5.15;;
27899;SDS011;15243;50.726;7.080;2023-01-05T07:33:06;27.33;;;5.10;;
27899;SDS011;15243;50.726;7.080;2023-01-05T07:35:33;30.02;;;4.88;;
27899;SDS011;15243;50.726;7.080;2023-01-05T07:37:59;33.55;;;5.60;;
27899;SDS011;15243;50.726;7.080;2023-01-05T07:40:26;28.73;;;4.32;;
27899;SDS011;15243;50.726;7.080;2023-01-05T07:42:53;34.38;;;4.82;;
27899;SDS011;15243;50.726;7.080;2023-01-05T07:45:20;31.30;;;4.95;;
27899;SDS011;15243;50.726;7.080;2023-01-05T07:47:47;33.72;;;5.00;;
27899;SDS011;15243;50.726;7.080;2023-01-05T07:50:14;37.72;;;6.00;;
27899;SDS011;15243;50.726;7.080;2023-01-05T07:52:41;37.65;;;4.75;;
27899;SDS011;15243;50.726;7.080;2023-01-05T07:55:07;35.38;;;5.88;;
27899;SDS011;15243;50.726;7.080;2023-01-05T07:57:34;39.65;;;5.72;;
27899;SDS011;15243;50.726;7.080;2023-01-05T08:00:02;33.72;;;4.55;;
27899;SDS011;15243;50.726;7.080;2023-01-05T08:02:29;41.78;;;5.75;;
27899;SDS011;15243;50.726;7.080;2023-01-05T08:05:01;24.77;;;4.82;;
27899;SDS011;15243;50.726;7.080;2023-01-05T08:07:28;31.48;;;5.20;;
27899;SDS011;15243;50.726;7.080;2023-01-05T08:09:55;29.77;;;5.93;;
27899;SDS011;15243;50.726;7.080;2023-01-05T08:12:40;32.83;;;5.72;;
27899;SDS011;15243;50.726;7.080;2023-01-05T08:15:25;34.55;;;5.97;;
27899;SDS011;15243;50.726;7.080;2023-01-05T08:17:52;39.10;;;5.25;;
27899;SDS011;15243;50.726;7.080;2023-01-05T08:20:19;43.50;;;5.97;;
27899;SDS011;15243;50.726;7.080;2023-01-05T08:22:52;37.40;;;5.95;;
27899;SDS011;15243;50.726;7.080;2023-01-05T08:27:46;38.70;;;5.28;;
27899;SDS011;15243;50.726;7.080;2023-01-05T08:30:13;38.22;;;5.10;;
27899;SDS011;15243;50.726;7.080;2023-01-05T08:32:40;28.40;;;4.45;;
27899;SDS011;15243;50.726;7.080;2023-01-05T08:35:07;31.73;;;5.75;;
27899;SDS011;15243;50.726;7.080;2023-01-05T08:37:34;35.92;;;6.13;;
27899;SDS011;15243;50.726;7.080;2023-01-05T08:40:01;36.90;;;5.78;;
27899;SDS011;15243;50.726;7.080;2023-01-05T08:42:28;33.70;;;5.22;;
27899;SDS011;15243;50.726;7.080;2023-01-05T08:44:55;38.42;;;6.30;;
27899;SDS011;15243;50.726;7.080;2023-01-05T08:47:21;37.13;;;6.35;;
27899;SDS011;15243;50.726;7.080;2023-01-05T08:49:53;37.50;;;5.88;;
27899;SDS011;15243;50.726;7.080;2023-01-05T08:52:20;37.30;;;5.30;;
27899;SDS011;15243;50.726;7.080;2023-01-05T08:54:48;32.63;;;5.88;;
27899;SDS011;15243;50.726;7.080;2023-01-05T08:57:15;34.05;;;6.40;;
27899;SDS011;15243;50.726;7.080;2023-01-05T08:59:42;35.38;;;5.18;;
27899;SDS011;15243;50.726;7.080;2023-01-05T09:02:10;39.65;;;5.40;;
27899;SDS011;15243;50.726;7.080;2023-01-05T09:04:37;38.65;;;5.60;;
27899;SDS011;15243;50.726;7.080;2023-01-05T09:07:04;35.58;;;5.85;;
27899;SDS011;15243;50.726;7.080;2023-01-05T09:09:31;33.95;;;4.90;;
27899;SDS011;15243;50.726;7.080;2023-01-05T09:11:58;43.17;;;6.07;;
27899;SDS011;15243;50.726;7.080;2023-01-05T09:14:24;47.08;;;6.80;;
27899;SDS011;15243;50.726;7.080;2023-01-05T09:16:51;36.80;;;6.00;;
27899;SDS011;15243;50.726;7.080;2023-01-05T09:22:01;35.67;;;5.50;;
27899;SDS011;15243;50.726;7.080;2023-01-05T09:24:28;48.45;;;6.65;;
27899;SDS011;15243;50.726;7.080;2023-01-05T09:26:55;39.38;;;6.70;;
27899;SDS011;15243;50.726;7.080;2023-01-05T09:29:22;37.35;;;6.25;;
27899;SDS011;15243;50.726;7.080;2023-01-05T09:31:49;46.60;;;6.22;;
27899;SDS011;15243;50.726;7.080;2023-01-05T09:34:16;42.30;;;6.88;;
27899;SDS011;15243;50.726;7.080;2023-01-05T09:36:44;50.15;;;7.78;;
27899;SDS011;15243;50.726;7.080;2023-01-05T09:39:11;36.97;;;6.53;;
27899;SDS011;15243;50.726;7.080;2023-01-05T09:46:40;42.38;;;5.32;;
27899;SDS011;15243;50.726;7.080;2023-01-05T09:49:14;33.85;;;6.07;;
27899;SDS011;15243;50.726;7.080;2023-01-05T09:51:44;42.25;;;6.25;;
27899;SDS011;15243;50.726;7.080;2023-01-05T09:54:14;39.45;;;5.80;;
27899;SDS011;15243;50.726;7.080;2023-01-05T09:56:43;39.22;;;6.45;;
27899;SDS011;15243;50.726;7.080;2023-01-05T09:59:36;45.17;;;6.43;;
27899;SDS011;15243;50.726;7.080;2023-01-05T10:05:05;36.75;;;5.55;;
27899;SDS011;15243;50.726;7.080;2023-01-05T10:10:46;44.15;;;5.63;;
27899;SDS011;15243;50.726;7.080;2023-01-05T10:13:38;36.78;;;5.95;;
27899;SDS011;15243;50.726;7.080;2023-01-05T10:16:13;45.15;;;5.70;;
27899;SDS011;15243;50.726;7.080;2023-01-05T10:18:42;39.03;;;6.43;;
27899;SDS011;15243;50.726;7.080;2023-01-05T10:29:38;44.33;;;5.32;;
27899;SDS011;15243;50.726;7.080;2023-01-05T10:32:25;43.60;;;6.13;;
27899;SDS011;15243;50.726;7.080;2023-01-05T10:35:34;37.15;;;6.63;;
27899;SDS011;15243;50.726;7.080;2023-01-05T10:41:20;33.60;;;5.93;;
27899;SDS011;15243;50.726;7.080;2023-01-05T10:46:45;36.85;;;5.40;;
27899;SDS011;15243;50.726;7.080;2023-01-05T10:49:25;39.15;;;6.68;;
27899;SDS011;15243;50.726;7.080;2023-01-05T10:51:56;30.60;;;5.60;;
27899;SDS011;15243;50.726;7.080;2023-01-05T10:55:12;30.30;;;5.70;;
27899;SDS011;15243;50.726;7.080;2023-01-05T11:00:09;32.65;;;5.20;;
27899;SDS011;15243;50.726;7.080;2023-01-05T11:02:37;33.03;;;5.10;;
27899;SDS011;15243;50.726;7.080;2023-01-05T11:07:50;41.25;;;6.75;;
27899;SDS011;15243;50.726;7.080;2023-01-05T11:10:23;34.78;;;5.32;;
27899;SDS011;15243;50.726;7.080;2023-01-05T11:15:51;24.38;;;4.97;;
27899;SDS011;15243;50.726;7.080;2023-01-05T11:23:49;32.08;;;4.75;;
27899;SDS011;15243;50.726;7.080;2023-01-05T11:26:23;33.83;;;5.15;;
27899;SDS011;15243;50.726;7.080;2023-01-05T11:31:36;43.40;;;6.30;;
27899;SDS011;15243;50.726;7.080;2023-01-05T11:34:13;31.33;;;4.60;;
27899;SDS011;15243;50.726;7.080;2023-01-05T11:44:56;29.75;;;5.18;;
27899;SDS011;15243;50.726;7.080;2023-01-05T11:47:49;39.15;;;5.10;;
27899;SDS011;15243;50.726;7.080;2023-01-05T11:52:52;37.10;;;5.50;;
27899;SDS011;15243;50.726;7.080;2023-01-05T11:55:31;27.55;;;4.95;;
27899;SDS011;15243;50.726;7.080;2023-01-05T11:58:12;35.13;;;5.70;;
27899;SDS011;15243;50.726;7.080;2023-01-05T12:17:29;30.25;;;4.93;;
27899;SDS011;15243;50.726;7.080;2023-01-05T12:38:06;28.23;;;4.53;;
27899;SDS011;15243;50.726;7.080;2023-01-05T12:55:17;35.90;;;5.03;;
27899;SDS011;15243;50.726;7.080;2023-01-05T12:57:49;31.10;;;5.88;;
27899;SDS011;15243;50.726;7.080;2023-01-05T13:00:22;30.88;;;5.22;;
27899;SDS011;15243;50.726;7.080;2023-01-05T13:02:56;25.60;;;4.50;;
27899;SDS011;15243;50.726;7.080;2023-01-05T13:08:00;26.05;;;4.43;;
27899;SDS011;15243;50.726;7.080;2023-01-05T13:11:09;34.75;;;5.35;;
27899;SDS011;15243;50.726;7.080;2023-01-05T13:13:44;31.83;;;5.40;;
27899;SDS011;15243;50.726;7.080;2023-01-05T13:16:21;30.20;;;4.78;;
27899;SDS011;15243;50.726;7.080;2023-01-05T13:19:03;29.98;;;5.85;;
27899;SDS011;15243;50.726;7.080;2023-01-05T13:21:36;28.60;;;5.10;;
27899;SDS011;15243;50.726;7.080;2023-01-05T13:24:08;32.97;;;5.00;;
27899;SDS011;15243;50.726;7.080;2023-01-05T13:26:39;41.92;;;6.03;;
27899;SDS011;15243;50.726;7.080;2023-01-05T13:29:10;28.20;;;4.35;;
27899;SDS011;15243;50.726;7.080;2023-01-05T13:43:00;31.38;;;5.55;;
27899;SDS011;15243;50.726;7.080;2023-01-05T13:54:33;34.22;;;5.43;;
27899;SDS011;15243;50.726;7.080;2023-01-05T13:57:23;31.08;;;4.88;;
27899;SDS011;15243;50.726;7.080;2023-01-05T14:00:03;34.80;;;4.72;;
27899;SDS011;15243;50.726;7.080;2023-01-05T14:02:40;27.63;;;4.40;;
27899;SDS011;15243;50.726;7.080;2023-01-05T14:05:29;33.55;;;5.95;;
27899;SDS011;15243;50.726;7.080;2023-01-05T14:07:59;28.77;;;5.13;;
27899;SDS011;15243;50.726;7.080;2023-01-05T14:10:30;34.78;;;5.95;;
27899;SDS011;15243;50.726;7.080;2023-01-05T14:12:57;32.03;;;5.35;;
27899;SDS011;15243;50.726;7.080;2023-01-05T14:20:48;38.38;;;5.38;;
27899;SDS011;15243;50.726;7.080;2023-01-05T14:25:52;37.03;;;5.35;;
27899;SDS011;15243;50.726;7.080;2023-01-05T14:28:38;26.13;;;5.25;;
27899;SDS011;15243;50.726;7.080;2023-01-05T14:33:47;29.27;;;5.07;;
27899;SDS011;15243;50.726;7.080;2023-01-05T14:36:25;36.53;;;6.95;;
27899;SDS011;15243;50.726;7.080;2023-01-05T14:44:31;35.50;;;5.57;;
27899;SDS011;15243;50.726;7.080;2023-01-05T14:47:01;33.83;;;5.90;;
27899;SDS011;15243;50.726;7.080;2023-01-05T14:49:44;38.05;;;5.57;;
27899;SDS011;15243;50.726;7.080;2023-01-05T14:55:24;35.95;;;6.10;;
27899;SDS011;15243;50.726;7.080;2023-01-05T15:00:42;31.92;;;5.93;;
27899;SDS011;15243;50.726;7.080;2023-01-05T15:03:32;28.00;;;5.07;;
27899;SDS011;15243;50.726;7.080;2023-01-05T15:06:15;34.95;;;5.38;;
27899;SDS011;15243;50.726;7.080;2023-01-05T15:11:55;37.25;;;5.90;;
27899;SDS011;15243;50.726;7.080;2023-01-05T15:29:10;29.73;;;5.43;;
27899;SDS011;15243;50.726;7.080;2023-01-05T15:32:16;34.42;;;5.80;;
27899;SDS011;15243;50.726;7.080;2023-01-05T15:37:30;35.85;;;6.03;;
27899;SDS011;15243;50.726;7.080;2023-01-05T15:40:24;33.42;;;5.35;;
27899;SDS011;15243;50.726;7.080;2023-01-05T15:43:04;33.30;;;6.00;;
27899;SDS011;15243;50.726;7.080;2023-01-05T15:45:37;33.85;;;6.07;;
27899;SDS011;15243;50.726;7.080;2023-01-05T15:48:11;34.22;;;6.03;;
27899;SDS011;15243;50.726;7.080;2023-01-05T15:50:47;31.25;;;4.82;;
27899;SDS011;15243;50.726;7.080;2023-01-05T15:55:55;29.65;;;5.57;;
27899;SDS011;15243;50.726;7.080;2023-01-05T15:58:24;36.17;;;5.32;;
27899;SDS011;15243;50.726;7.080;2023-01-05T16:03:37;36.17;;;5.72;;
27899;SDS011;15243;50.726;7.080;2023-01-05T16:08:47;32.13;;;5.13;;
27899;SDS011;15243;50.726;7.080;2023-01-05T16:11:39;31.00;;;5.93;;
27899;SDS011;15243;50.726;7.080;2023-01-05T16:14:17;38.10;;;5.60;;
27899;SDS011;15243;50.726;7.080;2023-01-05T16:17:01;34.53;;;5.07;;
27899;SDS011;15243;50.726;7.080;2023-01-05T16:19:38;26.23;;;4.95;;
27899;SDS011;15243;50.726;7.080;2023-01-05T16:22:18;41.08;;;6.32;;
27899;SDS011;15243;50.726;7.080;2023-01-05T16:27:18;47.92;;;6.47;;
27899;SDS011;15243;50.726;7.080;2023-01-05T16:29:46;37.17;;;7.35;;
27899;SDS011;15243;50.726;7.080;2023-01-05T16:32:26;38.53;;;7.45;;
27899;SDS011;15243;50.726;7.080;2023-01-05T16:40:39;34.45;;;5.80;;
27899;SDS011;15243;50.726;7.080;2023-01-05T16:48:58;41.45;;;6.40;;
27899;SDS011;15243;50.726;7.080;2023-01-05T16:54:21;32.90;;;6.13;;
27899;SDS011;15243;50.726;7.080;2023-01-05T16:57:00;41.67;;;7.65;;
27899;SDS011;15243;50.726;7.080;2023-01-05T16:59:45;45.25;;;6.40;;
27899;SDS011;15243;50.726;7.080;2023-01-05T17:02:41;39.30;;;6.53;;
27899;SDS011;15243;50.726;7.080;2023-01-05T17:05:12;45.72;;;7.72;;
27899;SDS011;15243;50.726;7.080;2023-01-05T17:07:41;42.88;;;6.63;;
27899;SDS011;15243;50.726;7.080;2023-01-05T17:10:20;38.85;;;6.25;;
27899;SDS011;15243;50.726;7.080;2023-01-05T17:12:51;45.80;;;6.70;;
27899;SDS011;15243;50.726;7.080;2023-01-05T17:15:22;46.53;;;7.07;;
27899;SDS011;15243;50.726;7.080;2023-01-05T17:17:51;44.85;;;7.25;;
27899;SDS011;15243;50.726;7.080;2023-01-05T17:20:21;46.80;;;8.30;;
27899;SDS011;15243;50.726;7.080;2023-01-05T17:22:49;32.28;;;6.82;;
27899;SDS011;15243;50.726;7.080;2023-01-05T17:25:18;36.90;;;6.75;;
27899;SDS011;15243;50.726;7.080;2023-01-05T17:27:45;37.15;;;7.03;;
27899;SDS011;15243;50.726;7.080;2023-01-05T17:30:17;39.95;;;6.85;;
27899;SDS011;15243;50.726;7.080;2023-01-05T17:32:45;36.53;;;6.25;;
27899;SDS011;15243;50.726;7.080;2023-01-05T17:35:12;41.42;;;7.05;;
27899;SDS011;15243;50.726;7.080;2023-01-05T17:37:43;36.72;;;6.82;;
27899;SDS011;15243;50.726;7.080;2023-01-05T17:40:14;47.85;;;7.00;;
27899;SDS011;15243;50.726;7.080;2023-01-05T17:42:44;37.72;;;7.00;;
27899;SDS011;15243;50.726;7.080;2023-01-05T17:45:18;40.28;;;6.78;;
27899;SDS011;15243;50.726;7.080;2023-01-05T17:47:47;45.97;;;7.03;;
27899;SDS011;15243;50.726;7.080;2023-01-05T17:50:16;33.47;;;6.15;;
27899;SDS011;15243;50.726;7.080;2023-01-05T17:52:47;35.00;;;7.80;;
27899;SDS011;15243;50.726;7.080;2023-01-05T17:55:14;44.63;;;7.47;;
27899;SDS011;15243;50.726;7.080;2023-01-05T17:57:42;34.63;;;6.95;;
27899;SDS011;15243;50.726;7.080;2023-01-05T18:00:10;39.25;;;7.18;;
27899;SDS011;15243;50.726;7.080;2023-01-05T18:02:39;47.25;;;6.97;;
27899;SDS011;15243;50.726;7.080;2023-01-05T18:05:07;39.88;;;7.15;;
27899;SDS011;15243;50.726;7.080;2023-01-05T18:07:35;40.72;;;8.07;;
27899;SDS011;15243;50.726;7.080;2023-01-05T18:10:04;38.38;;;7.57;;
27899;SDS011;15243;50.726;7.080;2023-01-05T18:12:33;33.13;;;7.10;;
27899;SDS011;15243;50.726;7.080;2023-01-05T18:15:00;39.17;;;7.82;;
27899;SDS011;15243;50.726;7.080;2023-01-05T18:17:27;41.85;;;7.20;;
27899;SDS011;15243;50.726;7.080;2023-01-05T18:19:54;30.40;;;6.53;;
27899;SDS011;15243;50.726;7.080;2023-01-05T18:22:21;38.35;;;6.85;;
27899;SDS011;15243;50.726;7.080;2023-01-05T18:24:47;36.95;;;5.72;;
27899;SDS011;15243;50.726;7.080;2023-01-05T18:27:14;34.78;;;6.18;;
27899;SDS011;15243;50.726;7.080;2023-01-05T18:29:41;27.85;;;5.88;;